sensor_id;sensor_type;location;lat;lon;timestamp;pressure;altitude;pressure_sealevel;temperature;humidity
16595;BME280;8410;52.532;13.336;2023-07-13T00:01:04;100797.44;;;23.55;58.93
16595;BME280;8410;52.532;13.336;2023-07-13T00:03:32;100798.44;;;23.31;59.00
16595;BME280;8410;52.532;13.336;2023-07-13T00:06:01;100801.19;;;23.72;59.36
16595;BME280;8410;52.532;13.336;2023-07-13T00:08:31;100801.00;;;23.76;59.18
16595;BME280;8410;52.532;13.336;2023-07-13T00:10:59;100791.13;;;23.60;59.45
16595;BME280;8410;52.532;13.336;2023-07-13T00:13:27;100798.03;;;23.40;59.81
16595;BME280;8410;52.532;13.336;2023-07-13T00:15:56;100795.34;;;23.64;58.54
16595;BME280;8410;52.532;13.336;2023-07-13T00:18:24;100800.47;;;23.67;59.15
16595;BME280;8410;52.532;13.336;2023-07-13T00:20:52;100804.88;;;23.66;58.62
16595;BME280;8410;52.532;13.336;2023-07-13T00:23:20;100809.13;;;23.03;60.22
16595;BME280;8410;52.532;13.336;2023-07-13T00:25:47;100803.72;;;23.29;59.48
16595;BME280;8410;52.532;13.336;2023-07-13T00:28:17;100802.34;;;22.97;60.78
16595;BME280;8410;52.532;13.336;2023-07-13T00:30:44;100813.66;;;22.99;60.55
16595;BME280;8410;52.532;13.336;2023-07-13T00:33:14;100825.81;;;22.77;60.44
16595;BME280;8410;52.532;13.336;2023-07-13T00:35:44;100820.63;;;22.52;60.78
16595;BME280;8410;52.532;13.336;2023-07-13T00:38:11;100812.72;;;23.24;59.07
16595;BME280;8410;52.532;13.336;2023-07-13T00:40:39;100808.34;;;23.01;59.76
16595;BME280;8410;52.532;13.336;2023-07-13T00:43:16;100812.28;;;23.13;59.41
16595;BME280;8410;52.532;13.336;2023-07-13T00:46:19;100823.34;;;22.23;62.42
16595;BME280;8410;52.532;13.336;2023-07-13T00:48:49;100813.59;;;22.52;61.24
16595;BME280;8410;52.532;13.336;2023-07-13T00:51:22;100815.59;;;22.20;62.20
16595;BME280;8410;52.532;13.336;2023-07-13T00:53:53;100812.69;;;21.76;63.28
16595;BME280;8410;52.532;13.336;2023-07-13T00:56:21;100815.09;;;22.59;61.15
16595;BME280;8410;52.532;13.336;2023-07-13T00:58:49;100806.63;;;22.01;61.84
16595;BME280;8410;52.532;13.336;2023-07-13T01:01:17;100811.63;;;22.34;61.11
16595;BME280;8410;52.532;13.336;2023-07-13T01:03:45;100816.53;;;21.91;63.45
16595;BME280;8410;52.532;13.336;2023-07-13T01:06:15;100806.66;;;22.26;62.34
16595;BME280;8410;52.532;13.336;2023-07-13T01:08:44;100816.75;;;21.85;63.36
16595;BME280;8410;52.532;13.336;2023-07-13T01:11:11;100830.44;;;21.40;65.35
16595;BME280;8410;52.532;13.336;2023-07-13T01:13:39;100825.28;;;22.18;62.31
16595;BME280;8410;52.532;13.336;2023-07-13T01:16:13;100820.84;;;21.94;63.27
16595;BME280;8410;52.532;13.336;2023-07-13T01:18:42;100823.66;;;21.88;64.23
16595;BME280;8410;52.532;13.336;2023-07-13T01:21:11;100820.22;;;22.12;63.13
16595;BME280;8410;52.532;13.336;2023-07-13T01:23:38;100827.81;;;21.95;63.67
16595;BME280;8410;52.532;13.336;2023-07-13T01:26:06;100819.50;;;22.07;63.03
16595;BME280;8410;52.532;13.336;2023-07-13T01:28:33;100831.78;;;22.07;63.59
16595;BME280;8410;52.532;13.336;2023-07-13T01:31:04;100830.25;;;21.99;63.64
16595;BME280;8410;52.532;13.336;2023-07-13T01:33:32;100832.25;;;21.93;63.32
16595;BME280;8410;52.532;13.336;2023-07-13T01:36:00;100820.31;;;22.09;63.22
16595;BME280;8410;52.532;13.336;2023-07-13T01:38:29;100817.84;;;22.05;63.42
16595;BME280;8410;52.532;13.336;2023-07-13T01:40:57;100816.03;;;21.82;64.28
16595;BME280;8410;52.532;13.336;2023-07-13T01:43:25;100826.53;;;20.96;67.00
16595;BME280;8410;52.532;13.336;2023-07-13T01:45:52;100820.22;;;21.59;65.20
16595;BME280;8410;52.532;13.336;2023-07-13T01:48:28;100814.81;;;22.17;63.16
16595;BME280;8410;52.532;13.336;2023-07-13T01:50:56;100819.31;;;22.13;62.58
16595;BME280;8410;52.532;13.336;2023-07-13T01:53:23;100812.69;;;22.03;63.97
16595;BME280;8410;52.532;13.336;2023-07-13T01:55:52;100818.91;;;21.72;65.00
16595;BME280;8410;52.532;13.336;2023-07-13T01:58:20;100812.00;;;21.96;63.13
16595;BME280;8410;52.532;13.336;2023-07-13T02:00:48;100809.94;;;22.06;63.02
16595;BME280;8410;52.532;13.336;2023-07-13T02:03:15;100814.13;;;22.12;63.42
16595;BME280;8410;52.532;13.336;2023-07-13T02:05:44;100827.56;;;22.02;63.72
16595;BME280;8410;52.532;13.336;2023-07-13T02:08:12;100818.69;;;22.05;63.86
16595;BME280;8410;52.532;13.336;2023-07-13T02:10:39;100814.59;;;22.24;62.86
16595;BME280;8410;52.532;13.336;2023-07-13T02:13:08;100825.22;;;21.93;63.99
16595;BME280;8410;52.532;13.336;2023-07-13T02:15:38;100820.31;;;22.09;63.49
16595;BME280;8410;52.532;13.336;2023-07-13T02:18:06;100819.41;;;21.84;64.56
16595;BME280;8410;52.532;13.336;2023-07-13T02:20:34;100819.53;;;21.80;64.54
16595;BME280;8410;52.532;13.336;2023-07-13T02:23:02;100829.63;;;21.93;64.90
16595;BME280;8410;52.532;13.336;2023-07-13T02:25:32;100830.13;;;21.77;64.23
16595;BME280;8410;52.532;13.336;2023-07-13T02:28:00;100818.78;;;21.49;65.36
16595;BME280;8410;52.532;13.336;2023-07-13T02:30:29;100808.97;;;20.99;68.00
16595;BME280;8410;52.532;13.336;2023-07-13T02:32:57;100812.50;;;21.26;67.17
16595;BME280;8410;52.532;13.336;2023-07-13T02:35:25;100806.28;;;21.01;68.07
16595;BME280;8410;52.532;13.336;2023-07-13T02:37:52;100805.00;;;21.70;66.87
16595;BME280;8410;52.532;13.336;2023-07-13T02:40:19;100801.38;;;22.28;63.80
16595;BME280;8410;52.532;13.336;2023-07-13T02:42:47;100801.13;;;22.09;65.08
16595;BME280;8410;52.532;13.336;2023-07-13T02:45:15;100803.63;;;22.12;65.08
16595;BME280;8410;52.532;13.336;2023-07-13T02:47:44;100806.41;;;22.07;65.21
16595;BME280;8410;52.532;13.336;2023-07-13T02:50:12;100820.91;;;21.38;67.73
16595;BME280;8410;52.532;13.336;2023-07-13T02:52:39;100816.34;;;21.44;67.00
16595;BME280;8410;52.532;13.336;2023-07-13T02:55:07;100823.03;;;21.53;66.30
16595;BME280;8410;52.532;13.336;2023-07-13T02:57:35;100820.06;;;21.65;66.08
16595;BME280;8410;52.532;13.336;2023-07-13T03:00:04;100834.06;;;21.34;66.44
16595;BME280;8410;52.532;13.336;2023-07-13T03:02:33;100832.94;;;21.71;65.61
16595;BME280;8410;52.532;13.336;2023-07-13T03:05:02;100839.66;;;22.05;64.56
16595;BME280;8410;52.532;13.336;2023-07-13T03:07:31;100850.00;;;21.27;67.14
16595;BME280;8410;52.532;13.336;2023-07-13T03:09:59;100854.16;;;21.34;65.94
16595;BME280;8410;52.532;13.336;2023-07-13T03:12:26;100856.63;;;21.68;66.06
16595;BME280;8410;52.532;13.336;2023-07-13T03:14:54;100846.41;;;21.59;65.91
16595;BME280;8410;52.532;13.336;2023-07-13T03:17:21;100848.63;;;21.45;67.21
16595;BME280;8410;52.532;13.336;2023-07-13T03:19:49;100851.94;;;22.05;65.96
16595;BME280;8410;52.532;13.336;2023-07-13T03:22:18;100859.19;;;21.70;65.90
16595;BME280;8410;52.532;13.336;2023-07-13T03:24:46;100860.84;;;21.99;65.65
16595;BME280;8410;52.532;13.336;2023-07-13T03:27:15;100857.34;;;22.00;66.12
16595;BME280;8410;52.532;13.336;2023-07-13T03:29:43;100857.72;;;22.41;64.92
16595;BME280;8410;52.532;13.336;2023-07-13T03:32:10;100861.19;;;22.66;64.95
16595;BME280;8410;52.532;13.336;2023-07-13T03:34:38;100862.31;;;22.08;64.73
16595;BME280;8410;52.532;13.336;2023-07-13T03:37:05;100870.16;;;22.36;65.54
16595;BME280;8410;52.532;13.336;2023-07-13T03:39:34;100870.84;;;22.14;65.43
16595;BME280;8410;52.532;13.336;2023-07-13T03:42:02;100875.88;;;21.94;65.67
16595;BME280;8410;52.532;13.336;2023-07-13T03:44:30;100875.97;;;22.17;65.39
16595;BME280;8410;52.532;13.336;2023-07-13T03:46:57;100873.25;;;22.47;64.96
16595;BME280;8410;52.532;13.336;2023-07-13T03:49:25;100871.78;;;22.63;63.58
16595;BME280;8410;52.532;13.336;2023-07-13T03:51:53;100872.25;;;21.71;66.79
16595;BME280;8410;52.532;13.336;2023-07-13T03:54:20;100874.53;;;21.54;67.15
16595;BME280;8410;52.532;13.336;2023-07-13T03:56:49;100878.28;;;21.45;67.14
16595;BME280;8410;52.532;13.336;2023-07-13T03:59:16;100869.31;;;21.80;66.29
16595;BME280;8410;52.532;13.336;2023-07-13T04:01:44;100876.34;;;22.58;64.53
16595;BME280;8410;52.532;13.336;2023-07-13T04:04:12;100861.13;;;25.45;56.26
16595;BME280;8410;52.532;13.336;2023-07-13T04:06:39;100864.94;;;25.57;55.15
16595;BME280;8410;52.532;13.336;2023-07-13T04:09:08;100858.88;;;27.10;52.64
16595;BME280;8410;52.532;13.336;2023-07-13T04:11:35;100847.22;;;28.95;48.58
16595;BME280;8410;52.532;13.336;2023-07-13T04:14:04;100844.56;;;28.95;48.17
16595;BME280;8410;52.532;13.336;2023-07-13T04:16:32;100855.66;;;28.14;49.33
16595;BME280;8410;52.532;13.336;2023-07-13T04:19:00;100852.97;;;29.30;46.49
16595;BME280;8410;52.532;13.336;2023-07-13T04:21:29;100852.50;;;30.18;46.67
16595;BME280;8410;52.532;13.336;2023-07-13T04:23:57;100849.59;;;31.23;43.31
16595;BME280;8410;52.532;13.336;2023-07-13T04:26:25;100853.72;;;29.59;45.52
16595;BME280;8410;52.532;13.336;2023-07-13T04:28:52;100847.22;;;31.31;43.43
16595;BME280;8410;52.532;13.336;2023-07-13T04:31:22;100852.97;;;30.88;43.96
16595;BME280;8410;52.532;13.336;2023-07-13T04:33:49;100846.28;;;31.56;42.79
16595;BME280;8410;52.532;13.336;2023-07-13T04:36:17;100843.88;;;33.36;40.19
16595;BME280;8410;52.532;13.336;2023-07-13T04:38:45;100853.72;;;32.35;41.03
16595;BME280;8410;52.532;13.336;2023-07-13T04:41:13;100851.56;;;32.62;40.69
16595;BME280;8410;52.532;13.336;2023-07-13T04:43:41;100861.16;;;32.18;41.28
16595;BME280;8410;52.532;13.336;2023-07-13T04:46:13;100858.97;;;32.12;41.14
16595;BME280;8410;52.532;13.336;2023-07-13T04:48:43;100878.59;;;30.38;44.15
16595;BME280;8410;52.532;13.336;2023-07-13T04:51:11;100885.63;;;28.73;47.91
16595;BME280;8410;52.532;13.336;2023-07-13T04:53:38;100898.47;;;26.43;53.22
16595;BME280;8410;52.532;13.336;2023-07-13T04:56:06;100888.41;;;26.34;53.43
16595;BME280;8410;52.532;13.336;2023-07-13T04:58:34;100892.97;;;25.77;55.31
16595;BME280;8410;52.532;13.336;2023-07-13T05:01:02;100892.25;;;25.92;54.93
16595;BME280;8410;52.532;13.336;2023-07-13T05:03:30;100882.47;;;28.38;49.75
16595;BME280;8410;52.532;13.336;2023-07-13T05:06:02;100872.41;;;29.85;46.98
16595;BME280;8410;52.532;13.336;2023-07-13T05:08:30;100879.41;;;29.17;47.66
16595;BME280;8410;52.532;13.336;2023-07-13T05:10:59;100879.72;;;29.54;46.80
16595;BME280;8410;52.532;13.336;2023-07-13T05:13:27;100884.94;;;27.65;50.14
16595;BME280;8410;52.532;13.336;2023-07-13T05:15:57;100906.09;;;26.49;53.50
16595;BME280;8410;52.532;13.336;2023-07-13T05:18:25;100901.91;;;26.10;54.55
16595;BME280;8410;52.532;13.336;2023-07-13T05:21:01;100895.81;;;25.36;56.69
16595;BME280;8410;52.532;13.336;2023-07-13T05:23:30;100898.38;;;25.18;57.00
16595;BME280;8410;52.532;13.336;2023-07-13T05:25:57;100906.34;;;25.36;56.41
16595;BME280;8410;52.532;13.336;2023-07-13T05:28:25;100904.84;;;25.49;55.96
16595;BME280;8410;52.532;13.336;2023-07-13T05:30:54;100920.53;;;24.10;58.65
16595;BME280;8410;52.532;13.336;2023-07-13T05:33:23;100912.66;;;24.73;58.18
16595;BME280;8410;52.532;13.336;2023-07-13T05:35:50;100918.81;;;25.51;55.83
16595;BME280;8410;52.532;13.336;2023-07-13T05:38:19;100922.50;;;25.47;55.11
16595;BME280;8410;52.532;13.336;2023-07-13T05:40:47;100912.16;;;27.35;51.60
16595;BME280;8410;52.532;13.336;2023-07-13T05:43:15;100904.91;;;27.86;49.55
16595;BME280;8410;52.532;13.336;2023-07-13T05:45:42;100919.38;;;25.39;54.72
16595;BME280;8410;52.532;13.336;2023-07-13T05:48:10;100918.47;;;25.00;56.70
16595;BME280;8410;52.532;13.336;2023-07-13T05:50:38;100925.88;;;24.09;59.78
16595;BME280;8410;52.532;13.336;2023-07-13T05:53:05;100930.47;;;24.24;59.54
16595;BME280;8410;52.532;13.336;2023-07-13T05:55:34;100924.16;;;24.50;58.81
16595;BME280;8410;52.532;13.336;2023-07-13T05:58:02;100927.78;;;24.68;58.15
16595;BME280;8410;52.532;13.336;2023-07-13T06:00:29;100926.94;;;24.68;57.41
16595;BME280;8410;52.532;13.336;2023-07-13T06:02:57;100934.06;;;25.05;57.88
16595;BME280;8410;52.532;13.336;2023-07-13T06:05:25;100933.19;;;25.25;56.49
16595;BME280;8410;52.532;13.336;2023-07-13T06:07:53;100921.97;;;24.80;56.52
16595;BME280;8410;52.532;13.336;2023-07-13T06:10:21;100933.84;;;24.70;56.99
16595;BME280;8410;52.532;13.336;2023-07-13T06:12:49;100928.94;;;23.98;59.35
16595;BME280;8410;52.532;13.336;2023-07-13T06:15:17;100923.50;;;24.45;59.01
16595;BME280;8410;52.532;13.336;2023-07-13T06:17:45;100919.63;;;24.54;58.21
16595;BME280;8410;52.532;13.336;2023-07-13T06:20:13;100915.53;;;25.46;56.33
16595;BME280;8410;52.532;13.336;2023-07-13T06:22:40;100911.41;;;25.40;56.04
16595;BME280;8410;52.532;13.336;2023-07-13T06:25:08;100912.69;;;25.32;56.46
16595;BME280;8410;52.532;13.336;2023-07-13T06:27:36;100919.19;;;24.22;58.79
16595;BME280;8410;52.532;13.336;2023-07-13T06:30:06;100918.22;;;24.03;59.44
16595;BME280;8410;52.532;13.336;2023-07-13T06:32:34;100919.22;;;24.63;58.93
16595;BME280;8410;52.532;13.336;2023-07-13T06:35:05;100909.09;;;25.14;57.28
16595;BME280;8410;52.532;13.336;2023-07-13T06:37:33;100904.78;;;25.50;56.13
16595;BME280;8410;52.532;13.336;2023-07-13T06:40:00;100907.97;;;27.47;52.26
16595;BME280;8410;52.532;13.336;2023-07-13T06:42:28;100903.44;;;28.71;48.42
16595;BME280;8410;52.532;13.336;2023-07-13T06:44:55;100905.34;;;28.98;46.11
16595;BME280;8410;52.532;13.336;2023-07-13T06:47:24;100902.50;;;28.87;48.00
16595;BME280;8410;52.532;13.336;2023-07-13T06:49:52;100899.84;;;29.15;47.79
16595;BME280;8410;52.532;13.336;2023-07-13T06:52:19;100897.91;;;27.54;51.04
16595;BME280;8410;52.532;13.336;2023-07-13T06:54:47;100904.19;;;27.99;49.04
16595;BME280;8410;52.532;13.336;2023-07-13T06:57:14;100899.44;;;27.89;49.83
16595;BME280;8410;52.532;13.336;2023-07-13T06:59:42;100912.03;;;26.54;51.60
16595;BME280;8410;52.532;13.336;2023-07-13T07:02:10;100904.78;;;26.23;53.15
16595;BME280;8410;52.532;13.336;2023-07-13T07:04:39;100916.63;;;25.97;53.88
16595;BME280;8410;52.532;13.336;2023-07-13T07:07:07;100903.63;;;26.29;53.04
16595;BME280;8410;52.532;13.336;2023-07-13T07:09:34;100905.97;;;25.62;54.01
16595;BME280;8410;52.532;13.336;2023-07-13T07:12:02;100914.41;;;25.33;54.99
16595;BME280;8410;52.532;13.336;2023-07-13T07:14:30;100905.75;;;26.03;53.99
16595;BME280;8410;52.532;13.336;2023-07-13T07:16:58;100908.50;;;26.02;52.12
16595;BME280;8410;52.532;13.336;2023-07-13T07:19:26;100910.50;;;25.78;53.58
16595;BME280;8410;52.532;13.336;2023-07-13T07:21:55;100910.53;;;26.31;51.97
16595;BME280;8410;52.532;13.336;2023-07-13T07:24:22;100914.09;;;25.58;55.10
16595;BME280;8410;52.532;13.336;2023-07-13T07:26:50;100911.25;;;25.24;56.01
16595;BME280;8410;52.532;13.336;2023-07-13T07:29:20;100923.66;;;25.22;54.81
16595;BME280;8410;52.532;13.336;2023-07-13T07:31:51;100924.34;;;25.26;55.70
16595;BME280;8410;52.532;13.336;2023-07-13T07:34:22;100922.50;;;25.47;54.38
16595;BME280;8410;52.532;13.336;2023-07-13T07:36:50;100924.75;;;25.73;53.22
16595;BME280;8410;52.532;13.336;2023-07-13T07:39:21;100918.63;;;25.73;53.52
16595;BME280;8410;52.532;13.336;2023-07-13T07:41:49;100929.06;;;25.19;55.07
16595;BME280;8410;52.532;13.336;2023-07-13T07:44:19;100915.47;;;26.03;53.02
16595;BME280;8410;52.532;13.336;2023-07-13T07:46:47;100922.00;;;26.13;52.13
16595;BME280;8410;52.532;13.336;2023-07-13T07:49:14;100925.00;;;25.88;53.50
16595;BME280;8410;52.532;13.336;2023-07-13T07:51:42;100933.41;;;26.83;50.95
16595;BME280;8410;52.532;13.336;2023-07-13T07:54:10;100930.16;;;26.43;50.40
16595;BME280;8410;52.532;13.336;2023-07-13T07:56:44;100926.06;;;26.20;50.56
16595;BME280;8410;52.532;13.336;2023-07-13T07:59:32;100926.63;;;25.90;53.78
16595;BME280;8410;52.532;13.336;2023-07-13T08:02:02;100924.66;;;26.30;50.90
16595;BME280;8410;52.532;13.336;2023-07-13T08:04:33;100931.25;;;26.22;52.79
16595;BME280;8410;52.532;13.336;2023-07-13T08:07:04;100933.16;;;26.54;50.41
16595;BME280;8410;52.532;13.336;2023-07-13T08:09:31;100936.59;;;26.37;51.71
16595;BME280;8410;52.532;13.336;2023-07-13T08:12:00;100940.72;;;25.89;51.12
16595;BME280;8410;52.532;13.336;2023-07-13T08:14:31;100933.16;;;25.82;51.65
16595;BME280;8410;52.532;13.336;2023-07-13T08:17:17;100942.50;;;24.93;52.87
16595;BME280;8410;52.532;13.336;2023-07-13T08:19:45;100940.19;;;25.45;52.77
16595;BME280;8410;52.532;13.336;2023-07-13T08:22:12;100932.00;;;25.51;52.62
16595;BME280;8410;52.532;13.336;2023-07-13T08:24:40;100929.97;;;25.94;51.55
16595;BME280;8410;52.532;13.336;2023-07-13T08:27:11;100930.63;;;26.34;51.46
16595;BME280;8410;52.532;13.336;2023-07-13T08:29:39;100929.44;;;27.25;50.05
16595;BME280;8410;52.532;13.336;2023-07-13T08:32:07;100939.94;;;26.93;50.35
16595;BME280;8410;52.532;13.336;2023-07-13T08:34:37;100935.03;;;26.86;50.54
16595;BME280;8410;52.532;13.336;2023-07-13T08:37:05;100945.56;;;26.52;49.07
16595;BME280;8410;52.532;13.336;2023-07-13T08:39:33;100944.94;;;25.37;49.86
16595;BME280;8410;52.532;13.336;2023-07-13T08:42:15;100948.00;;;25.27;50.25
16595;BME280;8410;52.532;13.336;2023-07-13T08:44:51;100943.91;;;26.50;48.44
16595;BME280;8410;52.532;13.336;2023-07-13T08:47:23;100949.16;;;25.22;50.15
16595;BME280;8410;52.532;13.336;2023-07-13T08:49:52;100956.03;;;26.00;49.13
16595;BME280;8410;52.532;13.336;2023-07-13T08:52:30;100947.97;;;26.74;48.28
16595;BME280;8410;52.532;13.336;2023-07-13T08:55:06;100955.72;;;26.77;47.60
16595;BME280;8410;52.532;13.336;2023-07-13T08:57:41;100951.47;;;26.57;48.03
16595;BME280;8410;52.532;13.336;2023-07-13T09:00:10;100955.75;;;25.68;48.22
16595;BME280;8410;52.532;13.336;2023-07-13T09:02:44;100946.16;;;26.40;47.74
16595;BME280;8410;52.532;13.336;2023-07-13T09:05:14;100957.03;;;26.34;48.40
16595;BME280;8410;52.532;13.336;2023-07-13T09:07:58;100949.44;;;25.91;48.67
16595;BME280;8410;52.532;13.336;2023-07-13T09:10:30;100953.34;;;25.83;49.60
16595;BME280;8410;52.532;13.336;2023-07-13T09:13:14;100962.97;;;27.24;46.61
16595;BME280;8410;52.532;13.336;2023-07-13T09:15:48;100952.84;;;26.47;47.22
16595;BME280;8410;52.532;13.336;2023-07-13T09:18:21;100941.91;;;27.39;46.04
16595;BME280;8410;52.532;13.336;2023-07-13T09:20:54;100946.59;;;25.58;47.77
16595;BME280;8410;52.532;13.336;2023-07-13T09:23:26;100949.00;;;25.44;48.89
16595;BME280;8410;52.532;13.336;2023-07-13T09:26:06;100939.09;;;25.87;47.96
16595;BME280;8410;52.532;13.336;2023-07-13T09:28:41;100949.69;;;26.58;47.54
16595;BME280;8410;52.532;13.336;2023-07-13T09:31:13;100939.94;;;26.93;46.76
16595;BME280;8410;52.532;13.336;2023-07-13T09:33:41;100938.97;;;26.78;47.94
16595;BME280;8410;52.532;13.336;2023-07-13T09:36:18;100940.63;;;27.30;45.46
16595;BME280;8410;52.532;13.336;2023-07-13T09:38:47;100947.72;;;27.30;46.42
16595;BME280;8410;52.532;13.336;2023-07-13T09:41:23;100941.31;;;27.34;46.86
16595;BME280;8410;52.532;13.336;2023-07-13T09:44:13;100945.53;;;27.54;45.79
16595;BME280;8410;52.532;13.336;2023-07-13T09:46:44;100947.44;;;27.34;44.41
16595;BME280;8410;52.532;13.336;2023-07-13T09:49:13;100939.03;;;27.75;43.05
16595;BME280;8410;52.532;13.336;2023-07-13T09:51:47;100945.47;;;27.22;44.69
16595;BME280;8410;52.532;13.336;2023-07-13T09:54:19;100945.34;;;27.57;44.24
16595;BME280;8410;52.532;13.336;2023-07-13T09:56:47;100939.44;;;27.36;45.06
16595;BME280;8410;52.532;13.336;2023-07-13T09:59:22;100944.50;;;27.72;44.64
16595;BME280;8410;52.532;13.336;2023-07-13T10:01:50;100946.94;;;26.77;45.72
16595;BME280;8410;52.532;13.336;2023-07-13T10:04:19;100933.75;;;26.77;46.06
16595;BME280;8410;52.532;13.336;2023-07-13T10:06:47;100941.38;;;26.66;46.36
16595;BME280;8410;52.532;13.336;2023-07-13T10:09:18;100942.13;;;26.85;45.64
16595;BME280;8410;52.532;13.336;2023-07-13T10:11:46;100937.22;;;27.28;44.18
16595;BME280;8410;52.532;13.336;2023-07-13T10:14:16;100937.59;;;27.69;44.29
16595;BME280;8410;52.532;13.336;2023-07-13T10:16:46;100929.13;;;27.95;43.38
16595;BME280;8410;52.532;13.336;2023-07-13T10:19:19;100935.38;;;27.62;44.32
16595;BME280;8410;52.532;13.336;2023-07-13T10:21:52;100947.53;;;27.17;45.14
16595;BME280;8410;52.532;13.336;2023-07-13T10:24:23;100939.00;;;26.07;46.83
16595;BME280;8410;52.532;13.336;2023-07-13T10:26:54;100936.75;;;26.34;46.57
16595;BME280;8410;52.532;13.336;2023-07-13T10:29:26;100938.53;;;26.16;45.69
16595;BME280;8410;52.532;13.336;2023-07-13T10:31:57;100940.72;;;26.78;44.95
16595;BME280;8410;52.532;13.336;2023-07-13T10:34:25;100944.13;;;26.80;44.65
16595;BME280;8410;52.532;13.336;2023-07-13T10:36:53;100945.38;;;26.90;44.62
16595;BME280;8410;52.532;13.336;2023-07-13T10:39:23;100941.63;;;26.94;44.46
16595;BME280;8410;52.532;13.336;2023-07-13T10:41:54;100933.75;;;27.43;44.11
16595;BME280;8410;52.532;13.336;2023-07-13T10:44:24;100928.78;;;27.69;43.59
16595;BME280;8410;52.532;13.336;2023-07-13T10:46:57;100941.88;;;27.23;43.82
16595;BME280;8410;52.532;13.336;2023-07-13T10:49:27;100948.34;;;25.77;46.56
16595;BME280;8410;52.532;13.336;2023-07-13T10:51:58;100945.38;;;26.21;46.34
16595;BME280;8410;52.532;13.336;2023-07-13T10:54:28;100946.31;;;25.64;46.75
16595;BME280;8410;52.532;13.336;2023-07-13T10:57:14;100951.44;;;25.67;46.68
16595;BME280;8410;52.532;13.336;2023-07-13T10:59:46;100950.28;;;25.16;47.13
16595;BME280;8410;52.532;13.336;2023-07-13T11:02:23;100941.16;;;26.16;46.34
16595;BME280;8410;52.532;13.336;2023-07-13T11:04:54;100937.31;;;26.41;44.89
16595;BME280;8410;52.532;13.336;2023-07-13T11:07:25;100933.41;;;26.83;44.03
16595;BME280;8410;52.532;13.336;2023-07-13T11:09:55;100938.41;;;26.72;44.11
16595;BME280;8410;52.532;13.336;2023-07-13T11:15:12;100939.44;;;27.02;43.25
16595;BME280;8410;52.532;13.336;2023-07-13T11:17:54;100935.09;;;27.19;43.42
16595;BME280;8410;52.532;13.336;2023-07-13T11:20:37;100923.81;;;27.79;42.57
16595;BME280;8410;52.532;13.336;2023-07-13T11:23:18;100937.28;;;26.06;44.99
16595;BME280;8410;52.532;13.336;2023-07-13T11:25:47;100931.78;;;27.14;43.78
16595;BME280;8410;52.532;13.336;2023-07-13T11:28:22;100926.06;;;27.55;43.12
16595;BME280;8410;52.532;13.336;2023-07-13T11:31:03;100916.06;;;27.76;42.50
16595;BME280;8410;52.532;13.336;2023-07-13T11:33:52;100929.97;;;27.79;40.91
16595;BME280;8410;52.532;13.336;2023-07-13T11:36:23;100909.34;;;27.70;40.32
16595;BME280;8410;52.532;13.336;2023-07-13T11:38:59;100927.25;;;27.65;40.28
16595;BME280;8410;52.532;13.336;2023-07-13T11:41:31;100921.88;;;27.82;39.54
16595;BME280;8410;52.532;13.336;2023-07-13T11:44:07;100934.97;;;28.15;38.68
16595;BME280;8410;52.532;13.336;2023-07-13T11:46:35;100936.63;;;27.70;39.52
16595;BME280;8410;52.532;13.336;2023-07-13T11:49:05;100927.81;;;28.18;38.97
16595;BME280;8410;52.532;13.336;2023-07-13T11:51:35;100918.38;;;27.82;40.38
16595;BME280;8410;52.532;13.336;2023-07-13T11:54:05;100933.91;;;27.40;40.94
16595;BME280;8410;52.532;13.336;2023-07-13T11:56:34;100942.88;;;26.17;42.78
16595;BME280;8410;52.532;13.336;2023-07-13T11:59:06;100941.31;;;26.13;42.79
16595;BME280;8410;52.532;13.336;2023-07-13T12:01:36;100933.56;;;27.31;41.68
16595;BME280;8410;52.532;13.336;2023-07-13T12:04:20;100926.06;;;27.55;41.41
16595;BME280;8410;52.532;13.336;2023-07-13T12:06:54;100934.75;;;27.25;41.72
16595;BME280;8410;52.532;13.336;2023-07-13T12:09:22;100931.38;;;26.01;41.98
16595;BME280;8410;52.532;13.336;2023-07-13T12:11:51;100935.75;;;26.37;42.13
16595;BME280;8410;52.532;13.336;2023-07-13T12:14:19;100930.63;;;25.61;43.28
16595;BME280;8410;52.532;13.336;2023-07-13T12:16:51;100922.53;;;26.02;43.35
16595;BME280;8410;52.532;13.336;2023-07-13T12:19:21;100934.56;;;25.71;43.98
16595;BME280;8410;52.532;13.336;2023-07-13T12:21:53;100927.53;;;25.70;44.50
16595;BME280;8410;52.532;13.336;2023-07-13T12:24:21;100930.19;;;26.60;43.64
16595;BME280;8410;52.532;13.336;2023-07-13T12:26:51;100935.44;;;26.43;43.88
16595;BME280;8410;52.532;13.336;2023-07-13T12:29:20;100930.91;;;25.93;42.65
16595;BME280;8410;52.532;13.336;2023-07-13T12:31:49;100934.75;;;26.39;42.15
16595;BME280;8410;52.532;13.336;2023-07-13T12:34:20;100927.50;;;26.08;42.72
16595;BME280;8410;52.532;13.336;2023-07-13T12:36:50;100932.22;;;26.89;41.75
16595;BME280;8410;52.532;13.336;2023-07-13T12:39:21;100919.06;;;27.54;40.09
16595;BME280;8410;52.532;13.336;2023-07-13T12:41:51;100920.41;;;27.92;39.59
16595;BME280;8410;52.532;13.336;2023-07-13T12:44:24;100917.72;;;26.97;40.70
16595;BME280;8410;52.532;13.336;2023-07-13T12:46:56;100925.47;;;27.00;41.33
16595;BME280;8410;52.532;13.336;2023-07-13T12:49:29;100926.09;;;26.88;41.32
16595;BME280;8410;52.532;13.336;2023-07-13T12:52:01;100931.22;;;26.04;40.50
16595;BME280;8410;52.532;13.336;2023-07-13T12:54:30;100935.66;;;25.85;41.41
16595;BME280;8410;52.532;13.336;2023-07-13T12:56:59;100927.81;;;26.02;42.65
16595;BME280;8410;52.532;13.336;2023-07-13T12:59:32;100929.84;;;26.84;41.99
16595;BME280;8410;52.532;13.336;2023-07-13T13:02:21;100928.53;;;27.09;41.45
16595;BME280;8410;52.532;13.336;2023-07-13T13:04:52;100927.84;;;27.05;40.84
16595;BME280;8410;52.532;13.336;2023-07-13T13:07:21;100923.00;;;26.97;40.07